ケープタウン の空港の天気 - METARとTAF

ケープタウン国際空港 ( FACT / CPT ) - 南アフリカ ケープタウン
飛行場実況気象(Metar)
観測時間01/23 07:00 SAST (01/23 05:00 UTC)
風向・風速北西 3m/s
視程6000m
天気現象
全天の4割程度の雲 雲底高度 90m
全天の8割程度の雲 雲底高度 490m
全天の8割程度の雲 雲底高度 1220m
気温19℃
湿度94%
気圧1010hPa
METARFACT 230500Z 31006KT 6000 SCT003 BKN016 BKN040 19/18 Q1010 NOSIG
過去の天気等 Google飛行場航空写真 Wunderground天気予報

過去48時間のMETAR

飛行場予報(TAF)
発表時間: 1/23 06:00 SAST (1/23 04:00 UTC)
予報対象時間: 23日8時 SAST ~ 24日14時 SAST
風向・風速北西 5m/s
視程10km以上
全天の4割程度の雲 雲底高度 150m
全天の8割程度の雲 雲底高度 300m
23日8時 SAST ~ 23日9時 SAST に 確率 30% で一時的に
全天の8割程度の雲 雲底高度 150m
23日15時 SAST から
風向・風速南 6m/s
視程10km以上
全天の4割程度の雲 雲底高度 760m
23日20時 SAST ~ 24日5時 SAST に 確率 30% で一時的に
全天の8割程度の雲 雲底高度 240m
TAF FACT 230400Z 2306/2412 32010KT 9999 SCT005 BKN010
PROB30 TEMPO 2306/2307 BKN005
FM231300 19012KT 9999 SCT025
PROB30 TEMPO 2318/2403 BKN008 TX27/2312Z TN17/2404Z